PWSweather.com
Personal Weather Stations
Station Observations
KOHCLEVE171
Cleveland, OH

Cleveland, OH

Lat: 41.48646164, Lon: -81.46408081

Elevation: 1059

Station Type:

High Low Average
Temperature 32.0°F0.0°C 18.9°F-7.3°C 25.7°F-3.5°C
Dew Point 30.4°F-0.9°C 14.0°F-10.0°C 21.4°F-5.9°C
Winds 4.9 mph 7.9 kmh 0.7 mph 1.1 kmh 3.0 mph SE4.8 kmh SE
Wind Gusts 9.6 mph15.4 kmh 0.9 mph1.4 kmh 4.0 mph6.4 kmh
Humidity 94% 76% 84%
Pressure 30.39 in1029.1 mb 30.01 in1016.3 mb -
Precipitation 0.00 in0.0 mm - -
Hour Temp Dew Point Humidity Winds Wind Gusts Pressure Precip Precip Rate Daily Precip Total
12:04 AM 22.3°F-5.4°C 17.1°F-8.3°C 80% 0.7 mph SE1.1 kmh SE 0.9 mph1.4 kmh 30.39 in1029.1 mb 0.00 in0.0 mm 0.00 in0.0 mm 0.00 in0.0 mm
12:09 AM 22.1°F-5.5°C 16.9°F-8.4°C 80% 1.1 mph SE1.8 kmh SE 1.8 mph2.9 kmh 30.38 in1028.8 mb 0.00 in0.0 mm 0.00 in0.0 mm 0.00 in0.0 mm
12:14 AM 22.3°F-5.4°C 17.1°F-8.3°C 80% 1.3 mph SE2.1 kmh SE 1.3 mph2.1 kmh 30.38 in1028.8 mb 0.00 in0.0 mm 0.00 in0.0 mm 0.00 in0.0 mm
12:19 AM 21.9°F-5.6°C 16.7°F-8.5°C 80% 1.6 mph ESE2.6 kmh ESE 1.8 mph2.9 kmh 30.38 in1028.8 mb 0.00 in0.0 mm 0.00 in0.0 mm 0.00 in0.0 mm
12:24 AM 21.9°F-5.6°C 16.7°F-8.5°C 80% 1.1 mph SE1.8 kmh SE 1.6 mph2.6 kmh 30.37 in1028.4 mb 0.00 in0.0 mm 0.00 in0.0 mm 0.00 in0.0 mm
12:29 AM 21.6°F-5.8°C 16.3°F-8.7°C 80% 0.7 mph E1.1 kmh E 1.3 mph2.1 kmh 30.37 in1028.4 mb 0.00 in0.0 mm 0.00 in0.0 mm 0.00 in0.0 mm
12:34 AM 21.6°F-5.8°C 16.7°F-8.5°C 81% 1.3 mph SE2.1 kmh SE 1.8 mph2.9 kmh 30.37 in1028.4 mb 0.00 in0.0 mm 0.00 in0.0 mm 0.00 in0.0 mm
12:39 AM 21.7°F-5.7°C 16.9°F-8.4°C 81% 0.9 mph E1.4 kmh E 1.3 mph2.1 kmh 30.37 in1028.4 mb 0.00 in0.0 mm 0.00 in0.0 mm 0.00 in0.0 mm
12:44 AM 21.6°F-5.8°C 16.7°F-8.5°C 81% 1.3 mph SE2.1 kmh SE 1.8 mph2.9 kmh 30.37 in1028.4 mb 0.00 in0.0 mm 0.00 in0.0 mm 0.00 in0.0 mm
12:49 AM 21.6°F-5.8°C 16.7°F-8.5°C 81% 1.3 mph SE2.1 kmh SE 1.8 mph2.9 kmh 30.37 in1028.4 mb 0.00 in0.0 mm 0.00 in0.0 mm 0.00 in0.0 mm
12:54 AM 21.7°F-5.7°C 16.9°F-8.4°C 81% 1.6 mph E2.6 kmh E 1.8 mph2.9 kmh 30.37 in1028.4 mb 0.00 in0.0 mm 0.00 in0.0 mm 0.00 in0.0 mm
12:59 AM 21.6°F-5.8°C 16.7°F-8.5°C 81% 1.1 mph SE1.8 kmh SE 1.6 mph2.6 kmh 30.37 in1028.4 mb 0.00 in0.0 mm 0.00 in0.0 mm 0.00 in0.0 mm
01:04 AM 21.6°F-5.8°C 16.7°F-8.5°C 81% 1.3 mph SE2.1 kmh SE 1.6 mph2.6 kmh 30.37 in1028.4 mb 0.00 in0.0 mm 0.00 in0.0 mm 0.00 in0.0 mm
01:09 AM 21.6°F-5.8°C 16.7°F-8.5°C 81% 1.1 mph E1.8 kmh E 1.8 mph2.9 kmh 30.37 in1028.4 mb 0.00 in0.0 mm 0.00 in0.0 mm 0.00 in0.0 mm
01:14 AM 21.6°F-5.8°C 16.7°F-8.5°C 81% 1.3 mph SSE2.1 kmh SSE 1.6 mph2.6 kmh 30.37 in1028.4 mb 0.00 in0.0 mm 0.00 in0.0 mm 0.00 in0.0 mm
01:19 AM 21.4°F-5.9°C 16.5°F-8.6°C 81% 0.9 mph SE1.4 kmh SE 1.3 mph2.1 kmh 30.37 in1028.4 mb 0.00 in0.0 mm 0.00 in0.0 mm 0.00 in0.0 mm
01:24 AM 21.6°F-5.8°C 16.7°F-8.5°C 81% 1.1 mph SE1.8 kmh SE 1.8 mph2.9 kmh 30.37 in1028.4 mb 0.00 in0.0 mm 0.00 in0.0 mm 0.00 in0.0 mm
01:29 AM 21.6°F-5.8°C 16.7°F-8.5°C 81% 1.6 mph ESE2.6 kmh ESE 1.8 mph2.9 kmh 30.37 in1028.4 mb 0.00 in0.0 mm 0.00 in0.0 mm 0.00 in0.0 mm
01:34 AM 21.2°F-6.0°C 16.3°F-8.7°C 81% 2.0 mph ESE3.2 kmh ESE 2.0 mph3.2 kmh 30.37 in1028.4 mb 0.00 in0.0 mm 0.00 in0.0 mm 0.00 in0.0 mm
01:39 AM 21.4°F-5.9°C 16.5°F-8.6°C 81% 1.6 mph SE2.6 kmh SE 1.8 mph2.9 kmh 30.37 in1028.4 mb 0.00 in0.0 mm 0.00 in0.0 mm 0.00 in0.0 mm
01:44 AM 21.2°F-6.0°C 16.3°F-8.7°C 81% 1.1 mph SE1.8 kmh SE 1.1 mph1.8 kmh 30.37 in1028.4 mb 0.00 in0.0 mm 0.00 in0.0 mm 0.00 in0.0 mm
01:49 AM 21.2°F-6.0°C 16.3°F-8.7°C 81% 0.9 mph SSE1.4 kmh SSE 1.1 mph1.8 kmh 30.37 in1028.4 mb 0.00 in0.0 mm 0.00 in0.0 mm 0.00 in0.0 mm
01:54 AM 21.2°F-6.0°C 16.3°F-8.7°C 81% 0.9 mph SE1.4 kmh SE 1.6 mph2.6 kmh 30.37 in1028.4 mb 0.00 in0.0 mm 0.00 in0.0 mm 0.00 in0.0 mm
01:59 AM 21.2°F-6.0°C 16.3°F-8.7°C 81% 2.0 mph E3.2 kmh E 2.5 mph4.0 kmh 30.37 in1028.4 mb 0.00 in0.0 mm 0.00 in0.0 mm 0.00 in0.0 mm
02:04 AM 20.8°F-6.2°C 16.0°F-8.9°C 81% 1.6 mph E2.6 kmh E 2.0 mph3.2 kmh 30.37 in1028.4 mb 0.00 in0.0 mm 0.00 in0.0 mm 0.00 in0.0 mm
02:09 AM 20.8°F-6.2°C 16.0°F-8.9°C 81% 1.6 mph ESE2.6 kmh ESE 1.8 mph2.9 kmh 30.37 in1028.4 mb 0.00 in0.0 mm 0.00 in0.0 mm 0.00 in0.0 mm
02:14 AM 20.7°F-6.3°C 15.8°F-9.0°C 81% 1.6 mph SE2.6 kmh SE 1.6 mph2.6 kmh 30.37 in1028.4 mb 0.00 in0.0 mm 0.00 in0.0 mm 0.00 in0.0 mm
02:19 AM 20.7°F-6.3°C 15.8°F-9.0°C 81% 1.8 mph ESE2.9 kmh ESE 2.0 mph3.2 kmh 30.37 in1028.4 mb 0.00 in0.0 mm 0.00 in0.0 mm 0.00 in0.0 mm
02:24 AM 20.5°F-6.4°C 15.6°F-9.1°C 81% 1.6 mph ESE2.6 kmh ESE 1.8 mph2.9 kmh 30.37 in1028.4 mb 0.00 in0.0 mm 0.00 in0.0 mm 0.00 in0.0 mm
02:29 AM 20.3°F-6.5°C 15.4°F-9.2°C 81% 1.6 mph E2.6 kmh E 2.0 mph3.2 kmh 30.37 in1028.4 mb 0.00 in0.0 mm 0.00 in0.0 mm 0.00 in0.0 mm
02:34 AM 20.3°F-6.5°C 15.4°F-9.2°C 81% 0.9 mph SE1.4 kmh SE 2.0 mph3.2 kmh 30.37 in1028.4 mb 0.00 in0.0 mm 0.00 in0.0 mm 0.00 in0.0 mm
02:39 AM 20.3°F-6.5°C 15.4°F-9.2°C 81% 1.6 mph E2.6 kmh E 2.0 mph3.2 kmh 30.37 in1028.4 mb 0.00 in0.0 mm 0.00 in0.0 mm 0.00 in0.0 mm
02:44 AM 20.1°F-6.6°C 15.3°F-9.3°C 81% 1.8 mph ESE2.9 kmh ESE 2.2 mph3.5 kmh 30.37 in1028.4 mb 0.00 in0.0 mm 0.00 in0.0 mm 0.00 in0.0 mm
02:49 AM 19.9°F-6.7°C 15.1°F-9.4°C 81% 1.6 mph SE2.6 kmh SE 2.0 mph3.2 kmh 30.37 in1028.4 mb 0.00 in0.0 mm 0.00 in0.0 mm 0.00 in0.0 mm
02:54 AM 19.9°F-6.7°C 15.1°F-9.4°C 81% 1.1 mph SE1.8 kmh SE 1.8 mph2.9 kmh 30.37 in1028.4 mb 0.00 in0.0 mm 0.00 in0.0 mm 0.00 in0.0 mm
02:59 AM 19.9°F-6.7°C 15.1°F-9.4°C 81% 1.8 mph SE2.9 kmh SE 1.8 mph2.9 kmh 30.38 in1028.8 mb 0.00 in0.0 mm 0.00 in0.0 mm 0.00 in0.0 mm
03:04 AM 19.8°F-6.8°C 14.9°F-9.5°C 81% 1.8 mph SE2.9 kmh SE 1.8 mph2.9 kmh 30.38 in1028.8 mb 0.00 in0.0 mm 0.00 in0.0 mm 0.00 in0.0 mm
03:09 AM 19.6°F-6.9°C 14.7°F-9.6°C 81% 1.8 mph ESE2.9 kmh ESE 2.9 mph4.7 kmh 30.37 in1028.4 mb 0.00 in0.0 mm 0.00 in0.0 mm 0.00 in0.0 mm
03:14 AM 19.4°F-7.0°C 14.5°F-9.7°C 81% 1.8 mph ESE2.9 kmh ESE 3.6 mph5.8 kmh 30.37 in1028.4 mb 0.00 in0.0 mm 0.00 in0.0 mm 0.00 in0.0 mm
03:19 AM 19.4°F-7.0°C 14.5°F-9.7°C 81% 1.8 mph SE2.9 kmh SE 1.8 mph2.9 kmh 30.37 in1028.4 mb 0.00 in0.0 mm 0.00 in0.0 mm 0.00 in0.0 mm
03:24 AM 19.2°F-7.1°C 14.4°F-9.8°C 81% 1.6 mph SE2.6 kmh SE 1.8 mph2.9 kmh 30.37 in1028.4 mb 0.00 in0.0 mm 0.00 in0.0 mm 0.00 in0.0 mm
03:29 AM 19.2°F-7.1°C 14.0°F-10.0°C 80% 1.8 mph SE2.9 kmh SE 2.0 mph3.2 kmh 30.37 in1028.4 mb 0.00 in0.0 mm 0.00 in0.0 mm 0.00 in0.0 mm
03:34 AM 19.2°F-7.1°C 14.4°F-9.8°C 81% 0.7 mph SE1.1 kmh SE 0.9 mph1.4 kmh 30.37 in1028.4 mb 0.00 in0.0 mm 0.00 in0.0 mm 0.00 in0.0 mm
03:39 AM 19.2°F-7.1°C 14.4°F-9.8°C 81% 1.6 mph SE2.6 kmh SE 1.8 mph2.9 kmh 30.37 in1028.4 mb 0.00 in0.0 mm 0.00 in0.0 mm 0.00 in0.0 mm
03:44 AM 19.2°F-7.1°C 14.4°F-9.8°C 81% 1.8 mph E2.9 kmh E 2.2 mph3.5 kmh 30.37 in1028.4 mb 0.00 in0.0 mm 0.00 in0.0 mm 0.00 in0.0 mm
03:49 AM 19.2°F-7.1°C 14.4°F-9.8°C 81% 1.8 mph ESE2.9 kmh ESE 2.0 mph3.2 kmh 30.37 in1028.4 mb 0.00 in0.0 mm 0.00 in0.0 mm 0.00 in0.0 mm
03:54 AM 19.4°F-7.0°C 14.5°F-9.7°C 81% 0.9 mph SE1.4 kmh SE 1.6 mph2.6 kmh 30.37 in1028.4 mb 0.00 in0.0 mm 0.00 in0.0 mm 0.00 in0.0 mm
03:59 AM 19.4°F-7.0°C 14.5°F-9.7°C 81% 1.8 mph E2.9 kmh E 2.9 mph4.7 kmh 30.37 in1028.4 mb 0.00 in0.0 mm 0.00 in0.0 mm 0.00 in0.0 mm
04:04 AM 19.4°F-7.0°C 14.5°F-9.7°C 81% 0.7 mph SSE1.1 kmh SSE 1.8 mph2.9 kmh 30.37 in1028.4 mb 0.00 in0.0 mm 0.00 in0.0 mm 0.00 in0.0 mm
04:09 AM 19.6°F-6.9°C 14.7°F-9.6°C 81% 1.8 mph SE2.9 kmh SE 2.5 mph4.0 kmh 30.37 in1028.4 mb 0.00 in0.0 mm 0.00 in0.0 mm 0.00 in0.0 mm
04:14 AM 19.6°F-6.9°C 15.3°F-9.3°C 83% 2.0 mph SE3.2 kmh SE 2.5 mph4.0 kmh 30.37 in1028.4 mb 0.00 in0.0 mm 0.00 in0.0 mm 0.00 in0.0 mm
04:19 AM 19.9°F-6.7°C 15.6°F-9.1°C 83% 2.0 mph SE3.2 kmh SE 2.5 mph4.0 kmh 30.37 in1028.4 mb 0.00 in0.0 mm 0.00 in0.0 mm 0.00 in0.0 mm
04:24 AM 19.9°F-6.7°C 15.6°F-9.1°C 83% 2.0 mph ESE3.2 kmh ESE 2.5 mph4.0 kmh 30.37 in1028.4 mb 0.00 in0.0 mm 0.00 in0.0 mm 0.00 in0.0 mm
04:29 AM 19.9°F-6.7°C 15.1°F-9.4°C 81% 2.2 mph SE3.5 kmh SE 2.5 mph4.0 kmh 30.37 in1028.4 mb 0.00 in0.0 mm 0.00 in0.0 mm 0.00 in0.0 mm
04:34 AM 19.9°F-6.7°C 15.1°F-9.4°C 81% 2.5 mph ESE4.0 kmh ESE 2.9 mph4.7 kmh 30.37 in1028.4 mb 0.00 in0.0 mm 0.00 in0.0 mm 0.00 in0.0 mm
04:39 AM 19.9°F-6.7°C 15.1°F-9.4°C 81% 2.7 mph SE4.3 kmh SE 2.9 mph4.7 kmh 30.36 in1028.1 mb 0.00 in0.0 mm 0.00 in0.0 mm 0.00 in0.0 mm
04:44 AM 19.9°F-6.7°C 15.1°F-9.4°C 81% 2.0 mph ESE3.2 kmh ESE 2.7 mph4.3 kmh 30.36 in1028.1 mb 0.00 in0.0 mm 0.00 in0.0 mm 0.00 in0.0 mm
04:49 AM 19.9°F-6.7°C 15.1°F-9.4°C 81% 2.5 mph SE4.0 kmh SE 2.9 mph4.7 kmh 30.35 in1027.8 mb 0.00 in0.0 mm 0.00 in0.0 mm 0.00 in0.0 mm
04:54 AM 19.9°F-6.7°C 15.1°F-9.4°C 81% 2.7 mph SE4.3 kmh SE 2.9 mph4.7 kmh 30.35 in1027.8 mb 0.00 in0.0 mm 0.00 in0.0 mm 0.00 in0.0 mm
04:59 AM 19.9°F-6.7°C 15.1°F-9.4°C 81% 1.8 mph SE2.9 kmh SE 2.2 mph3.5 kmh 30.36 in1028.1 mb 0.00 in0.0 mm 0.00 in0.0 mm 0.00 in0.0 mm
05:04 AM 19.6°F-6.9°C 14.7°F-9.6°C 81% 2.2 mph SE3.5 kmh SE 2.7 mph4.3 kmh 30.36 in1028.1 mb 0.00 in0.0 mm 0.00 in0.0 mm 0.00 in0.0 mm
05:09 AM 19.6°F-6.9°C 14.7°F-9.6°C 81% 2.7 mph ESE4.3 kmh ESE 2.9 mph4.7 kmh 30.35 in1027.8 mb 0.00 in0.0 mm 0.00 in0.0 mm 0.00 in0.0 mm
05:14 AM 19.6°F-6.9°C 14.7°F-9.6°C 81% 2.5 mph ESE4.0 kmh ESE 2.9 mph4.7 kmh 30.35 in1027.8 mb 0.00 in0.0 mm 0.00 in0.0 mm 0.00 in0.0 mm
05:19 AM 19.6°F-6.9°C 14.7°F-9.6°C 81% 2.9 mph SE4.7 kmh SE 3.1 mph5.0 kmh 30.35 in1027.8 mb 0.00 in0.0 mm 0.00 in0.0 mm 0.00 in0.0 mm
05:24 AM 19.6°F-6.9°C 14.4°F-9.8°C 80% 2.5 mph ESE4.0 kmh ESE 2.9 mph4.7 kmh 30.35 in1027.8 mb 0.00 in0.0 mm 0.00 in0.0 mm 0.00 in0.0 mm
05:29 AM 19.4°F-7.0°C 14.2°F-9.9°C 80% 2.0 mph ESE3.2 kmh ESE 2.7 mph4.3 kmh 30.35 in1027.8 mb 0.00 in0.0 mm 0.00 in0.0 mm 0.00 in0.0 mm
05:34 AM 19.4°F-7.0°C 14.2°F-9.9°C 80% 1.6 mph E2.6 kmh E 1.8 mph2.9 kmh 30.35 in1027.8 mb 0.00 in0.0 mm 0.00 in0.0 mm 0.00 in0.0 mm
05:39 AM 19.2°F-7.1°C 14.4°F-9.8°C 81% 1.8 mph SE2.9 kmh SE 2.0 mph3.2 kmh 30.35 in1027.8 mb 0.00 in0.0 mm 0.00 in0.0 mm 0.00 in0.0 mm
05:44 AM 19.4°F-7.0°C 14.5°F-9.7°C 81% 2.2 mph SE3.5 kmh SE 2.9 mph4.7 kmh 30.35 in1027.8 mb 0.00 in0.0 mm 0.00 in0.0 mm 0.00 in0.0 mm
05:49 AM 19.4°F-7.0°C 14.5°F-9.7°C 81% 1.8 mph SE2.9 kmh SE 2.2 mph3.5 kmh 30.35 in1027.8 mb 0.00 in0.0 mm 0.00 in0.0 mm 0.00 in0.0 mm
05:54 AM 19.4°F-7.0°C 14.5°F-9.7°C 81% 2.2 mph SE3.5 kmh SE 2.7 mph4.3 kmh 30.35 in1027.8 mb 0.00 in0.0 mm 0.00 in0.0 mm 0.00 in0.0 mm
05:59 AM 19.4°F-7.0°C 14.5°F-9.7°C 81% 1.8 mph SE2.9 kmh SE 2.5 mph4.0 kmh 30.35 in1027.8 mb 0.00 in0.0 mm 0.00 in0.0 mm 0.00 in0.0 mm
06:04 AM 19.2°F-7.1°C 14.4°F-9.8°C 81% 2.2 mph SE3.5 kmh SE 2.7 mph4.3 kmh 30.35 in1027.8 mb 0.00 in0.0 mm 0.00 in0.0 mm 0.00 in0.0 mm
06:09 AM 19.2°F-7.1°C 14.4°F-9.8°C 81% 2.5 mph SE4.0 kmh SE 2.9 mph4.7 kmh 30.35 in1027.8 mb 0.00 in0.0 mm 0.00 in0.0 mm 0.00 in0.0 mm
06:14 AM 19.2°F-7.1°C 14.4°F-9.8°C 81% 1.8 mph SE2.9 kmh SE 2.7 mph4.3 kmh 30.35 in1027.8 mb 0.00 in0.0 mm 0.00 in0.0 mm 0.00 in0.0 mm
06:19 AM 19.0°F-7.2°C 14.2°F-9.9°C 81% 1.6 mph SE2.6 kmh SE 2.7 mph4.3 kmh 30.35 in1027.8 mb 0.00 in0.0 mm 0.00 in0.0 mm 0.00 in0.0 mm
06:24 AM 18.9°F-7.3°C 14.0°F-10.0°C 81% 2.5 mph SE4.0 kmh SE 3.1 mph5.0 kmh 30.35 in1027.8 mb 0.00 in0.0 mm 0.00 in0.0 mm 0.00 in0.0 mm
06:29 AM 18.9°F-7.3°C 14.5°F-9.7°C 83% 2.2 mph SE3.5 kmh SE 2.7 mph4.3 kmh 30.35 in1027.8 mb 0.00 in0.0 mm 0.00 in0.0 mm 0.00 in0.0 mm
06:34 AM 19.2°F-7.1°C 14.9°F-9.5°C 83% 2.0 mph SE3.2 kmh SE 2.9 mph4.7 kmh 30.35 in1027.8 mb 0.00 in0.0 mm 0.00 in0.0 mm 0.00 in0.0 mm
06:39 AM 19.2°F-7.1°C 14.9°F-9.5°C 83% 2.2 mph SE3.5 kmh SE 2.9 mph4.7 kmh 30.35 in1027.8 mb 0.00 in0.0 mm 0.00 in0.0 mm 0.00 in0.0 mm
06:44 AM 19.6°F-6.9°C 14.7°F-9.6°C 81% 3.1 mph SE5.0 kmh SE 4.0 mph6.4 kmh 30.35 in1027.8 mb 0.00 in0.0 mm 0.00 in0.0 mm 0.00 in0.0 mm
06:49 AM 19.6°F-6.9°C 14.7°F-9.6°C 81% 2.7 mph SE4.3 kmh SE 4.3 mph6.9 kmh 30.35 in1027.8 mb 0.00 in0.0 mm 0.00 in0.0 mm 0.00 in0.0 mm
06:54 AM 19.6°F-6.9°C 14.7°F-9.6°C 81% 2.9 mph SE4.7 kmh SE 3.4 mph5.5 kmh 30.34 in1027.4 mb 0.00 in0.0 mm 0.00 in0.0 mm 0.00 in0.0 mm
06:59 AM 19.6°F-6.9°C 14.4°F-9.8°C 80% 2.9 mph SE4.7 kmh SE 3.4 mph5.5 kmh 30.34 in1027.4 mb 0.00 in0.0 mm 0.00 in0.0 mm 0.00 in0.0 mm
07:04 AM 19.6°F-6.9°C 14.7°F-9.6°C 81% 2.9 mph SE4.7 kmh SE 4.0 mph6.4 kmh 30.34 in1027.4 mb 0.00 in0.0 mm 0.00 in0.0 mm 0.00 in0.0 mm
07:09 AM 19.8°F-6.8°C 14.9°F-9.5°C 81% 2.5 mph ESE4.0 kmh ESE 3.4 mph5.5 kmh 30.34 in1027.4 mb 0.00 in0.0 mm 0.00 in0.0 mm 0.00 in0.0 mm
07:14 AM 19.8°F-6.8°C 14.9°F-9.5°C 81% 2.9 mph SE4.7 kmh SE 3.4 mph5.5 kmh 30.33 in1027.1 mb 0.00 in0.0 mm 0.00 in0.0 mm 0.00 in0.0 mm
07:19 AM 19.9°F-6.7°C 15.1°F-9.4°C 81% 2.7 mph ESE4.3 kmh ESE 3.1 mph5.0 kmh 30.33 in1027.1 mb 0.00 in0.0 mm 0.00 in0.0 mm 0.00 in0.0 mm
07:24 AM 20.1°F-6.6°C 14.9°F-9.5°C 80% 2.2 mph ESE3.5 kmh ESE 2.9 mph4.7 kmh 30.33 in1027.1 mb 0.00 in0.0 mm 0.00 in0.0 mm 0.00 in0.0 mm
07:29 AM 20.1°F-6.6°C 15.3°F-9.3°C 81% 2.5 mph SE4.0 kmh SE 3.1 mph5.0 kmh 30.32 in1026.8 mb 0.00 in0.0 mm 0.00 in0.0 mm 0.00 in0.0 mm
07:34 AM 20.1°F-6.6°C 15.3°F-9.3°C 81% 2.7 mph ESE4.3 kmh ESE 3.6 mph5.8 kmh 30.32 in1026.8 mb 0.00 in0.0 mm 0.00 in0.0 mm 0.00 in0.0 mm
07:39 AM 20.3°F-6.5°C 15.4°F-9.2°C 81% 2.5 mph SE4.0 kmh SE 2.9 mph4.7 kmh 30.32 in1026.8 mb 0.00 in0.0 mm 0.00 in0.0 mm 0.00 in0.0 mm
07:44 AM 20.3°F-6.5°C 15.1°F-9.4°C 80% 2.5 mph SE4.0 kmh SE 2.7 mph4.3 kmh 30.32 in1026.8 mb 0.00 in0.0 mm 0.00 in0.0 mm 0.00 in0.0 mm
07:49 AM 20.3°F-6.5°C 15.1°F-9.4°C 80% 2.0 mph SE3.2 kmh SE 2.7 mph4.3 kmh 30.32 in1026.8 mb 0.00 in0.0 mm 0.00 in0.0 mm 0.00 in0.0 mm
07:54 AM 20.3°F-6.5°C 15.4°F-9.2°C 81% 2.2 mph SE3.5 kmh SE 3.8 mph6.1 kmh 30.31 in1026.4 mb 0.00 in0.0 mm 0.00 in0.0 mm 0.00 in0.0 mm
07:59 AM 20.3°F-6.5°C 15.1°F-9.4°C 80% 2.7 mph SE4.3 kmh SE 3.1 mph5.0 kmh 30.31 in1026.4 mb 0.00 in0.0 mm 0.00 in0.0 mm 0.00 in0.0 mm
08:04 AM 20.5°F-6.4°C 15.6°F-9.1°C 81% 2.9 mph SE4.7 kmh SE 3.6 mph5.8 kmh 30.31 in1026.4 mb 0.00 in0.0 mm 0.00 in0.0 mm 0.00 in0.0 mm
08:09 AM 20.7°F-6.3°C 15.8°F-9.0°C 81% 2.7 mph ESE4.3 kmh ESE 2.9 mph4.7 kmh 30.30 in1026.1 mb 0.00 in0.0 mm 0.00 in0.0 mm 0.00 in0.0 mm
08:14 AM 20.7°F-6.3°C 15.8°F-9.0°C 81% 1.8 mph SE2.9 kmh SE 3.4 mph5.5 kmh 30.30 in1026.1 mb 0.00 in0.0 mm 0.00 in0.0 mm 0.00 in0.0 mm
08:19 AM 20.7°F-6.3°C 15.8°F-9.0°C 81% 2.2 mph SSE3.5 kmh SSE 3.4 mph5.5 kmh 30.30 in1026.1 mb 0.00 in0.0 mm 0.00 in0.0 mm 0.00 in0.0 mm
08:24 AM 20.7°F-6.3°C 15.8°F-9.0°C 81% 2.7 mph SE4.3 kmh SE 3.4 mph5.5 kmh 30.30 in1026.1 mb 0.00 in0.0 mm 0.00 in0.0 mm 0.00 in0.0 mm
08:29 AM 21.2°F-6.0°C 16.3°F-8.7°C 81% 2.2 mph SE3.5 kmh SE 3.4 mph5.5 kmh 30.30 in1026.1 mb 0.00 in0.0 mm 0.00 in0.0 mm 0.00 in0.0 mm
08:34 AM 21.2°F-6.0°C 16.3°F-8.7°C 81% 2.5 mph SE4.0 kmh SE 2.9 mph4.7 kmh 30.29 in1025.7 mb 0.00 in0.0 mm 0.00 in0.0 mm 0.00 in0.0 mm
08:39 AM 21.4°F-5.9°C 16.5°F-8.6°C 81% 2.0 mph SSE3.2 kmh SSE 2.7 mph4.3 kmh 30.30 in1026.1 mb 0.00 in0.0 mm 0.00 in0.0 mm 0.00 in0.0 mm
08:44 AM 21.4°F-5.9°C 16.5°F-8.6°C 81% 2.5 mph SE4.0 kmh SE 3.4 mph5.5 kmh 30.30 in1026.1 mb 0.00 in0.0 mm 0.00 in0.0 mm 0.00 in0.0 mm
08:49 AM 21.4°F-5.9°C 16.5°F-8.6°C 81% 2.5 mph SE4.0 kmh SE 3.1 mph5.0 kmh 30.29 in1025.7 mb 0.00 in0.0 mm 0.00 in0.0 mm 0.00 in0.0 mm
08:54 AM 21.6°F-5.8°C 16.7°F-8.5°C 81% 2.0 mph SE3.2 kmh SE 2.9 mph4.7 kmh 30.29 in1025.7 mb 0.00 in0.0 mm 0.00 in0.0 mm 0.00 in0.0 mm
08:59 AM 21.6°F-5.8°C 16.7°F-8.5°C 81% 2.5 mph SSE4.0 kmh SSE 2.9 mph4.7 kmh 30.29 in1025.7 mb 0.00 in0.0 mm 0.00 in0.0 mm 0.00 in0.0 mm
09:04 AM 21.7°F-5.7°C 16.9°F-8.4°C 81% 2.7 mph SE4.3 kmh SE 3.4 mph5.5 kmh 30.29 in1025.7 mb 0.00 in0.0 mm 0.00 in0.0 mm 0.00 in0.0 mm
09:09 AM 21.7°F-5.7°C 16.9°F-8.4°C 81% 2.5 mph SE4.0 kmh SE 3.6 mph5.8 kmh 30.30 in1026.1 mb 0.00 in0.0 mm 0.00 in0.0 mm 0.00 in0.0 mm
09:14 AM 21.9°F-5.6°C 17.1°F-8.3°C 81% 2.0 mph SE3.2 kmh SE 2.7 mph4.3 kmh 30.30 in1026.1 mb 0.00 in0.0 mm 0.00 in0.0 mm 0.00 in0.0 mm
09:19 AM 22.3°F-5.4°C 17.4°F-8.1°C 81% 2.9 mph ESE4.7 kmh ESE 3.6 mph5.8 kmh 30.29 in1025.7 mb 0.00 in0.0 mm 0.00 in0.0 mm 0.00 in0.0 mm
09:24 AM 22.5°F-5.3°C 17.6°F-8.0°C 81% 2.0 mph SE3.2 kmh SE 3.1 mph5.0 kmh 30.29 in1025.7 mb 0.00 in0.0 mm 0.00 in0.0 mm 0.00 in0.0 mm
09:29 AM 22.8°F-5.1°C 17.8°F-7.9°C 81% 2.9 mph SE4.7 kmh SE 4.3 mph6.9 kmh 30.29 in1025.7 mb 0.00 in0.0 mm 0.00 in0.0 mm 0.00 in0.0 mm
09:34 AM 23.0°F-5.0°C 17.8°F-7.9°C 80% 2.2 mph SSE3.5 kmh SSE 3.4 mph5.5 kmh 30.29 in1025.7 mb 0.00 in0.0 mm 0.00 in0.0 mm 0.00 in0.0 mm
09:39 AM 23.4°F-4.8°C 18.1°F-7.7°C 80% 1.8 mph SE2.9 kmh SE 2.5 mph4.0 kmh 30.28 in1025.4 mb 0.00 in0.0 mm 0.00 in0.0 mm 0.00 in0.0 mm
09:44 AM 23.5°F-4.7°C 18.3°F-7.6°C 80% 2.5 mph SE4.0 kmh SE 4.0 mph6.4 kmh 30.28 in1025.4 mb 0.00 in0.0 mm 0.00 in0.0 mm 0.00 in0.0 mm
09:49 AM 23.7°F-4.6°C 18.5°F-7.5°C 80% 2.7 mph SE4.3 kmh SE 3.6 mph5.8 kmh 30.28 in1025.4 mb 0.00 in0.0 mm 0.00 in0.0 mm 0.00 in0.0 mm
09:54 AM 23.9°F-4.5°C 18.3°F-7.6°C 79% 3.4 mph SSE5.5 kmh SSE 4.7 mph7.6 kmh 30.28 in1025.4 mb 0.00 in0.0 mm 0.00 in0.0 mm 0.00 in0.0 mm
09:59 AM 24.1°F-4.4°C 18.5°F-7.5°C 79% 2.5 mph SE4.0 kmh SE 3.6 mph5.8 kmh 30.28 in1025.4 mb 0.00 in0.0 mm 0.00 in0.0 mm 0.00 in0.0 mm
10:04 AM 24.4°F-4.2°C 18.9°F-7.3°C 79% 2.2 mph SSE3.5 kmh SSE 2.9 mph4.7 kmh 30.27 in1025.1 mb 0.00 in0.0 mm 0.00 in0.0 mm 0.00 in0.0 mm
10:09 AM 24.4°F-4.2°C 18.9°F-7.3°C 79% 2.5 mph SE4.0 kmh SE 3.6 mph5.8 kmh 30.27 in1025.1 mb 0.00 in0.0 mm 0.00 in0.0 mm 0.00 in0.0 mm
10:14 AM 24.8°F-4.0°C 19.2°F-7.1°C 79% 2.0 mph SE3.2 kmh SE 2.5 mph4.0 kmh 30.27 in1025.1 mb 0.00 in0.0 mm 0.00 in0.0 mm 0.00 in0.0 mm
10:19 AM 25.0°F-3.9°C 19.4°F-7.0°C 79% 3.4 mph SE5.5 kmh SE 4.5 mph7.2 kmh 30.26 in1024.7 mb 0.00 in0.0 mm 0.00 in0.0 mm 0.00 in0.0 mm
10:24 AM 25.2°F-3.8°C 19.6°F-6.9°C 79% 2.7 mph SE4.3 kmh SE 4.0 mph6.4 kmh 30.26 in1024.7 mb 0.00 in0.0 mm 0.00 in0.0 mm 0.00 in0.0 mm
10:29 AM 25.3°F-3.7°C 19.4°F-7.0°C 78% 2.5 mph SE4.0 kmh SE 4.0 mph6.4 kmh 30.26 in1024.7 mb 0.00 in0.0 mm 0.00 in0.0 mm 0.00 in0.0 mm
10:34 AM 25.7°F-3.5°C 19.8°F-6.8°C 78% 2.5 mph SE4.0 kmh SE 3.1 mph5.0 kmh 30.26 in1024.7 mb 0.00 in0.0 mm 0.00 in0.0 mm 0.00 in0.0 mm
10:39 AM 25.9°F-3.4°C 20.3°F-6.5°C 79% 1.8 mph SSE2.9 kmh SSE 3.6 mph5.8 kmh 30.26 in1024.7 mb 0.00 in0.0 mm 0.00 in0.0 mm 0.00 in0.0 mm
10:44 AM 26.2°F-3.2°C 20.3°F-6.5°C 78% 2.5 mph ESE4.0 kmh ESE 3.8 mph6.1 kmh 30.26 in1024.7 mb 0.00 in0.0 mm 0.00 in0.0 mm 0.00 in0.0 mm
10:49 AM 26.4°F-3.1°C 20.5°F-6.4°C 78% 1.8 mph E2.9 kmh E 2.9 mph4.7 kmh 30.26 in1024.7 mb 0.00 in0.0 mm 0.00 in0.0 mm 0.00 in0.0 mm
10:54 AM 26.4°F-3.1°C 20.5°F-6.4°C 78% 1.6 mph E2.6 kmh E 3.4 mph5.5 kmh 30.26 in1024.7 mb 0.00 in0.0 mm 0.00 in0.0 mm 0.00 in0.0 mm
10:59 AM 26.6°F-3.0°C 20.7°F-6.3°C 78% 1.8 mph SE2.9 kmh SE 2.9 mph4.7 kmh 30.26 in1024.7 mb 0.00 in0.0 mm 0.00 in0.0 mm 0.00 in0.0 mm
11:04 AM 26.8°F-2.9°C 20.8°F-6.2°C 78% 2.0 mph SSE3.2 kmh SSE 3.1 mph5.0 kmh 30.26 in1024.7 mb 0.00 in0.0 mm 0.00 in0.0 mm 0.00 in0.0 mm
11:09 AM 27.1°F-2.7°C 21.2°F-6.0°C 78% 2.7 mph SE4.3 kmh SE 4.5 mph7.2 kmh 30.25 in1024.4 mb 0.00 in0.0 mm 0.00 in0.0 mm 0.00 in0.0 mm
11:14 AM 27.3°F-2.6°C 21.4°F-5.9°C 78% 2.7 mph SE4.3 kmh SE 3.6 mph5.8 kmh 30.24 in1024.0 mb 0.00 in0.0 mm 0.00 in0.0 mm 0.00 in0.0 mm
11:19 AM 27.3°F-2.6°C 20.8°F-6.2°C 76% 2.7 mph SSE4.3 kmh SSE 3.6 mph5.8 kmh 30.24 in1024.0 mb 0.00 in0.0 mm 0.00 in0.0 mm 0.00 in0.0 mm
11:24 AM 27.1°F-2.7°C 20.7°F-6.3°C 76% 3.1 mph SE5.0 kmh SE 4.7 mph7.6 kmh 30.24 in1024.0 mb 0.00 in0.0 mm 0.00 in0.0 mm 0.00 in0.0 mm
11:29 AM 27.3°F-2.6°C 20.8°F-6.2°C 76% 2.9 mph SSE4.7 kmh SSE 4.0 mph6.4 kmh 30.24 in1024.0 mb 0.00 in0.0 mm 0.00 in0.0 mm 0.00 in0.0 mm
11:34 AM 27.5°F-2.5°C 20.8°F-6.2°C 76% 1.8 mph SE2.9 kmh SE 2.7 mph4.3 kmh 30.23 in1023.7 mb 0.00 in0.0 mm 0.00 in0.0 mm 0.00 in0.0 mm
11:39 AM 27.7°F-2.4°C 21.7°F-5.7°C 78% 2.7 mph SE4.3 kmh SE 4.3 mph6.9 kmh 30.23 in1023.7 mb 0.00 in0.0 mm 0.00 in0.0 mm 0.00 in0.0 mm
11:44 AM 27.9°F-2.3°C 21.9°F-5.6°C 78% 2.5 mph SE4.0 kmh SE 4.0 mph6.4 kmh 30.22 in1023.4 mb 0.00 in0.0 mm 0.00 in0.0 mm 0.00 in0.0 mm
11:49 AM 28.0°F-2.2°C 22.1°F-5.5°C 78% 2.7 mph ESE4.3 kmh ESE 3.6 mph5.8 kmh 30.22 in1023.4 mb 0.00 in0.0 mm 0.00 in0.0 mm 0.00 in0.0 mm
11:54 AM 28.2°F-2.1°C 21.6°F-5.8°C 76% 2.0 mph SE3.2 kmh SE 3.4 mph5.5 kmh 30.21 in1023.0 mb 0.00 in0.0 mm 0.00 in0.0 mm 0.00 in0.0 mm
11:59 AM 28.4°F-2.0°C 21.7°F-5.7°C 76% 2.5 mph SE4.0 kmh SE 2.7 mph4.3 kmh 30.21 in1023.0 mb 0.00 in0.0 mm 0.00 in0.0 mm 0.00 in0.0 mm
12:04 PM 28.6°F-1.9°C 22.6°F-5.2°C 78% 2.2 mph ESE3.5 kmh ESE 2.7 mph4.3 kmh 30.21 in1023.0 mb 0.00 in0.0 mm 0.00 in0.0 mm 0.00 in0.0 mm
12:09 PM 28.8°F-1.8°C 22.8°F-5.1°C 78% 2.7 mph SE4.3 kmh SE 4.0 mph6.4 kmh 30.20 in1022.7 mb 0.00 in0.0 mm 0.00 in0.0 mm 0.00 in0.0 mm
12:14 PM 28.8°F-1.8°C 22.1°F-5.5°C 76% 3.4 mph SSE5.5 kmh SSE 4.5 mph7.2 kmh 30.20 in1022.7 mb 0.00 in0.0 mm 0.00 in0.0 mm 0.00 in0.0 mm
12:19 PM 28.8°F-1.8°C 22.1°F-5.5°C 76% 3.4 mph SSE5.5 kmh SSE 4.7 mph7.6 kmh 30.19 in1022.4 mb 0.00 in0.0 mm 0.00 in0.0 mm 0.00 in0.0 mm
12:24 PM 28.9°F-1.7°C 22.3°F-5.4°C 76% 2.7 mph SSE4.3 kmh SSE 4.7 mph7.6 kmh 30.19 in1022.4 mb 0.00 in0.0 mm 0.00 in0.0 mm 0.00 in0.0 mm
12:29 PM 28.9°F-1.7°C 23.0°F-5.0°C 78% 3.4 mph SE5.5 kmh SE 4.7 mph7.6 kmh 30.18 in1022.0 mb 0.00 in0.0 mm 0.00 in0.0 mm 0.00 in0.0 mm
12:34 PM 28.8°F-1.8°C 22.8°F-5.1°C 78% 2.9 mph SE4.7 kmh SE 3.8 mph6.1 kmh 30.19 in1022.4 mb 0.00 in0.0 mm 0.00 in0.0 mm 0.00 in0.0 mm
12:39 PM 28.9°F-1.7°C 23.0°F-5.0°C 78% 2.7 mph SSE4.3 kmh SSE 3.6 mph5.8 kmh 30.19 in1022.4 mb 0.00 in0.0 mm 0.00 in0.0 mm 0.00 in0.0 mm
12:44 PM 28.9°F-1.7°C 23.0°F-5.0°C 78% 2.5 mph SSW4.0 kmh SSW 3.4 mph5.5 kmh 30.18 in1022.0 mb 0.00 in0.0 mm 0.00 in0.0 mm 0.00 in0.0 mm
12:49 PM 29.1°F-1.6°C 23.2°F-4.9°C 78% 2.7 mph SSE4.3 kmh SSE 3.4 mph5.5 kmh 30.18 in1022.0 mb 0.00 in0.0 mm 0.00 in0.0 mm 0.00 in0.0 mm
12:54 PM 29.1°F-1.6°C 23.2°F-4.9°C 78% 3.4 mph SSE5.5 kmh SSE 5.6 mph9.0 kmh 30.18 in1022.0 mb 0.00 in0.0 mm 0.00 in0.0 mm 0.00 in0.0 mm
12:59 PM 29.1°F-1.6°C 22.5°F-5.3°C 76% 3.8 mph SSE6.1 kmh SSE 5.6 mph9.0 kmh 30.17 in1021.7 mb 0.00 in0.0 mm 0.00 in0.0 mm 0.00 in0.0 mm
01:04 PM 29.1°F-1.6°C 22.5°F-5.3°C 76% 3.6 mph SSE5.8 kmh SSE 4.7 mph7.6 kmh 30.17 in1021.7 mb 0.00 in0.0 mm 0.00 in0.0 mm 0.00 in0.0 mm
01:09 PM 29.1°F-1.6°C 23.2°F-4.9°C 78% 2.9 mph SE4.7 kmh SE 4.3 mph6.9 kmh 30.16 in1021.3 mb 0.00 in0.0 mm 0.00 in0.0 mm 0.00 in0.0 mm
01:14 PM 29.3°F-1.5°C 22.6°F-5.2°C 76% 3.6 mph S5.8 kmh S 6.3 mph10.1 kmh 30.16 in1021.3 mb 0.00 in0.0 mm 0.00 in0.0 mm 0.00 in0.0 mm
01:19 PM 29.1°F-1.6°C 22.5°F-5.3°C 76% 2.7 mph S4.3 kmh S 4.9 mph7.9 kmh 30.16 in1021.3 mb 0.00 in0.0 mm 0.00 in0.0 mm 0.00 in0.0 mm
01:24 PM 29.1°F-1.6°C 22.5°F-5.3°C 76% 4.0 mph SSE6.4 kmh SSE 6.3 mph10.1 kmh 30.16 in1021.3 mb 0.00 in0.0 mm 0.00 in0.0 mm 0.00 in0.0 mm
01:29 PM 29.1°F-1.6°C 22.5°F-5.3°C 76% 3.1 mph SSE5.0 kmh SSE 4.5 mph7.2 kmh 30.16 in1021.3 mb 0.00 in0.0 mm 0.00 in0.0 mm 0.00 in0.0 mm
01:34 PM 29.5°F-1.4°C 23.5°F-4.7°C 78% 3.1 mph S5.0 kmh S 6.9 mph11.1 kmh 30.17 in1021.7 mb 0.00 in0.0 mm 0.00 in0.0 mm 0.00 in0.0 mm
01:39 PM 29.3°F-1.5°C 23.4°F-4.8°C 78% 4.3 mph SSE6.9 kmh SSE 6.5 mph10.5 kmh 30.17 in1021.7 mb 0.00 in0.0 mm 0.00 in0.0 mm 0.00 in0.0 mm
01:44 PM 29.3°F-1.5°C 23.4°F-4.8°C 78% 3.6 mph SE5.8 kmh SE 5.1 mph8.2 kmh 30.16 in1021.3 mb 0.00 in0.0 mm 0.00 in0.0 mm 0.00 in0.0 mm
01:49 PM 29.3°F-1.5°C 23.4°F-4.8°C 78% 3.4 mph SE5.5 kmh SE 4.0 mph6.4 kmh 30.16 in1021.3 mb 0.00 in0.0 mm 0.00 in0.0 mm 0.00 in0.0 mm
01:54 PM 29.3°F-1.5°C 23.4°F-4.8°C 78% 3.1 mph SSE5.0 kmh SSE 4.0 mph6.4 kmh 30.16 in1021.3 mb 0.00 in0.0 mm 0.00 in0.0 mm 0.00 in0.0 mm
01:59 PM 29.3°F-1.5°C 23.4°F-4.8°C 78% 2.7 mph SSE4.3 kmh SSE 4.3 mph6.9 kmh 30.15 in1021.0 mb 0.00 in0.0 mm 0.00 in0.0 mm 0.00 in0.0 mm
02:04 PM 29.3°F-1.5°C 23.4°F-4.8°C 78% 3.1 mph SSE5.0 kmh SSE 4.0 mph6.4 kmh 30.15 in1021.0 mb 0.00 in0.0 mm 0.00 in0.0 mm 0.00 in0.0 mm
02:09 PM 29.5°F-1.4°C 23.5°F-4.7°C 78% 3.1 mph SE5.0 kmh SE 4.0 mph6.4 kmh 30.14 in1020.7 mb 0.00 in0.0 mm 0.00 in0.0 mm 0.00 in0.0 mm
02:14 PM 29.5°F-1.4°C 23.5°F-4.7°C 78% 3.1 mph SSE5.0 kmh SSE 4.3 mph6.9 kmh 30.14 in1020.7 mb 0.00 in0.0 mm 0.00 in0.0 mm 0.00 in0.0 mm
02:19 PM 29.5°F-1.4°C 23.5°F-4.7°C 78% 3.4 mph SSE5.5 kmh SSE 5.1 mph8.2 kmh 30.14 in1020.7 mb 0.00 in0.0 mm 0.00 in0.0 mm 0.00 in0.0 mm
02:24 PM 29.5°F-1.4°C 23.5°F-4.7°C 78% 4.0 mph S6.4 kmh S 5.4 mph8.7 kmh 30.14 in1020.7 mb 0.00 in0.0 mm 0.00 in0.0 mm 0.00 in0.0 mm
02:29 PM 29.5°F-1.4°C 23.5°F-4.7°C 78% 2.5 mph SE4.0 kmh SE 4.0 mph6.4 kmh 30.14 in1020.7 mb 0.00 in0.0 mm 0.00 in0.0 mm 0.00 in0.0 mm
02:34 PM 29.7°F-1.3°C 23.9°F-4.5°C 79% 2.9 mph SE4.7 kmh SE 4.3 mph6.9 kmh 30.14 in1020.7 mb 0.00 in0.0 mm 0.00 in0.0 mm 0.00 in0.0 mm
02:39 PM 29.8°F-1.2°C 23.9°F-4.5°C 78% 3.8 mph SSE6.1 kmh SSE 6.7 mph10.8 kmh 30.13 in1020.3 mb 0.00 in0.0 mm 0.00 in0.0 mm 0.00 in0.0 mm
02:44 PM 29.8°F-1.2°C 23.9°F-4.5°C 78% 2.5 mph SE4.0 kmh SE 3.1 mph5.0 kmh 30.13 in1020.3 mb 0.00 in0.0 mm 0.00 in0.0 mm 0.00 in0.0 mm
02:49 PM 29.8°F-1.2°C 24.1°F-4.4°C 79% 3.4 mph SE5.5 kmh SE 4.9 mph7.9 kmh 30.13 in1020.3 mb 0.00 in0.0 mm 0.00 in0.0 mm 0.00 in0.0 mm
02:54 PM 29.8°F-1.2°C 24.1°F-4.4°C 79% 2.2 mph SE3.5 kmh SE 4.0 mph6.4 kmh 30.13 in1020.3 mb 0.00 in0.0 mm 0.00 in0.0 mm 0.00 in0.0 mm
02:59 PM 29.8°F-1.2°C 24.4°F-4.2°C 80% 2.5 mph SSE4.0 kmh SSE 3.1 mph5.0 kmh 30.13 in1020.3 mb 0.00 in0.0 mm 0.00 in0.0 mm 0.00 in0.0 mm
03:04 PM 29.8°F-1.2°C 24.8°F-4.0°C 81% 2.7 mph ESE4.3 kmh ESE 4.3 mph6.9 kmh 30.13 in1020.3 mb 0.00 in0.0 mm 0.00 in0.0 mm 0.00 in0.0 mm
03:09 PM 30.0°F-1.1°C 25.0°F-3.9°C 81% 2.9 mph SE4.7 kmh SE 4.3 mph6.9 kmh 30.13 in1020.3 mb 0.00 in0.0 mm 0.00 in0.0 mm 0.00 in0.0 mm
03:14 PM 30.0°F-1.1°C 25.0°F-3.9°C 81% 3.6 mph SE5.8 kmh SE 4.7 mph7.6 kmh 30.12 in1020.0 mb 0.00 in0.0 mm 0.00 in0.0 mm 0.00 in0.0 mm
03:19 PM 30.0°F-1.1°C 25.5°F-3.6°C 83% 2.9 mph SE4.7 kmh SE 3.8 mph6.1 kmh 30.12 in1020.0 mb 0.00 in0.0 mm 0.00 in0.0 mm 0.00 in0.0 mm
03:24 PM 30.0°F-1.1°C 25.5°F-3.6°C 83% 3.1 mph SSE5.0 kmh SSE 5.4 mph8.7 kmh 30.12 in1020.0 mb 0.00 in0.0 mm 0.00 in0.0 mm 0.00 in0.0 mm
03:29 PM 29.8°F-1.2°C 25.5°F-3.6°C 84% 2.9 mph SSE4.7 kmh SSE 4.5 mph7.2 kmh 30.11 in1019.6 mb 0.00 in0.0 mm 0.00 in0.0 mm 0.00 in0.0 mm
03:34 PM 30.0°F-1.1°C 25.7°F-3.5°C 84% 4.5 mph SSE7.2 kmh SSE 7.2 mph11.6 kmh 30.11 in1019.6 mb 0.00 in0.0 mm 0.00 in0.0 mm 0.00 in0.0 mm
03:39 PM 29.8°F-1.2°C 25.5°F-3.6°C 84% 4.9 mph S7.9 kmh S 7.4 mph11.9 kmh 30.11 in1019.6 mb 0.00 in0.0 mm 0.00 in0.0 mm 0.00 in0.0 mm
03:44 PM 29.7°F-1.3°C 25.3°F-3.7°C 84% 2.2 mph SSE3.5 kmh SSE 3.6 mph5.8 kmh 30.11 in1019.6 mb 0.00 in0.0 mm 0.00 in0.0 mm 0.00 in0.0 mm
03:49 PM 29.7°F-1.3°C 25.7°F-3.5°C 85% 3.6 mph SSE5.8 kmh SSE 5.6 mph9.0 kmh 30.11 in1019.6 mb 0.00 in0.0 mm 0.00 in0.0 mm 0.00 in0.0 mm
03:54 PM 29.7°F-1.3°C 25.7°F-3.5°C 85% 3.4 mph SSE5.5 kmh SSE 5.1 mph8.2 kmh 30.11 in1019.6 mb 0.00 in0.0 mm 0.00 in0.0 mm 0.00 in0.0 mm
03:59 PM 29.7°F-1.3°C 25.7°F-3.5°C 85% 2.9 mph SSE4.7 kmh SSE 4.7 mph7.6 kmh 30.10 in1019.3 mb 0.00 in0.0 mm 0.00 in0.0 mm 0.00 in0.0 mm
04:04 PM 29.8°F-1.2°C 25.9°F-3.4°C 85% 4.0 mph SSE6.4 kmh SSE 5.8 mph9.3 kmh 30.10 in1019.3 mb 0.00 in0.0 mm 0.00 in0.0 mm 0.00 in0.0 mm
04:09 PM 29.7°F-1.3°C 25.7°F-3.5°C 85% 4.3 mph SSE6.9 kmh SSE 5.8 mph9.3 kmh 30.10 in1019.3 mb 0.00 in0.0 mm 0.00 in0.0 mm 0.00 in0.0 mm
04:14 PM 29.7°F-1.3°C 25.7°F-3.5°C 85% 4.0 mph SSE6.4 kmh SSE 5.1 mph8.2 kmh 30.10 in1019.3 mb 0.00 in0.0 mm 0.00 in0.0 mm 0.00 in0.0 mm
04:19 PM 29.7°F-1.3°C 26.1°F-3.3°C 86% 4.9 mph SSE7.9 kmh SSE 7.2 mph11.6 kmh 30.10 in1019.3 mb 0.00 in0.0 mm 0.00 in0.0 mm 0.00 in0.0 mm
04:24 PM 29.7°F-1.3°C 26.1°F-3.3°C 86% 3.4 mph S5.5 kmh S 4.5 mph7.2 kmh 30.10 in1019.3 mb 0.00 in0.0 mm 0.00 in0.0 mm 0.00 in0.0 mm
04:29 PM 29.8°F-1.2°C 26.2°F-3.2°C 86% 2.2 mph SE3.5 kmh SE 3.1 mph5.0 kmh 30.09 in1019.0 mb 0.00 in0.0 mm 0.00 in0.0 mm 0.00 in0.0 mm
04:34 PM 30.0°F-1.1°C 26.4°F-3.1°C 86% 2.7 mph SE4.3 kmh SE 4.3 mph6.9 kmh 30.09 in1019.0 mb 0.00 in0.0 mm 0.00 in0.0 mm 0.00 in0.0 mm
04:39 PM 30.0°F-1.1°C 26.4°F-3.1°C 86% 3.1 mph SE5.0 kmh SE 5.6 mph9.0 kmh 30.09 in1019.0 mb 0.00 in0.0 mm 0.00 in0.0 mm 0.00 in0.0 mm
04:44 PM 30.2°F-1.0°C 26.6°F-3.0°C 86% 2.5 mph SE4.0 kmh SE 3.6 mph5.8 kmh 30.09 in1019.0 mb 0.00 in0.0 mm 0.00 in0.0 mm 0.00 in0.0 mm
04:49 PM 30.0°F-1.1°C 26.4°F-3.1°C 86% 2.5 mph SSE4.0 kmh SSE 4.7 mph7.6 kmh 30.09 in1019.0 mb 0.00 in0.0 mm 0.00 in0.0 mm 0.00 in0.0 mm
04:54 PM 30.0°F-1.1°C 26.4°F-3.1°C 86% 4.7 mph SE7.6 kmh SE 8.1 mph13.0 kmh 30.09 in1019.0 mb 0.00 in0.0 mm 0.00 in0.0 mm 0.00 in0.0 mm
04:59 PM 29.8°F-1.2°C 26.2°F-3.2°C 86% 4.7 mph SSE7.6 kmh SSE 7.8 mph12.6 kmh 30.08 in1018.6 mb 0.00 in0.0 mm 0.00 in0.0 mm 0.00 in0.0 mm
05:04 PM 29.8°F-1.2°C 26.2°F-3.2°C 86% 4.5 mph SSE7.2 kmh SSE 6.0 mph9.7 kmh 30.08 in1018.6 mb 0.00 in0.0 mm 0.00 in0.0 mm 0.00 in0.0 mm
05:09 PM 29.8°F-1.2°C 26.8°F-2.9°C 88% 3.4 mph SSE5.5 kmh SSE 4.7 mph7.6 kmh 30.08 in1018.6 mb 0.00 in0.0 mm 0.00 in0.0 mm 0.00 in0.0 mm
05:14 PM 30.0°F-1.1°C 27.0°F-2.8°C 88% 2.5 mph SSE4.0 kmh SSE 4.9 mph7.9 kmh 30.08 in1018.6 mb 0.00 in0.0 mm 0.00 in0.0 mm 0.00 in0.0 mm
05:19 PM 29.8°F-1.2°C 26.8°F-2.9°C 88% 2.5 mph SE4.0 kmh SE 4.0 mph6.4 kmh 30.08 in1018.6 mb 0.00 in0.0 mm 0.00 in0.0 mm 0.00 in0.0 mm
05:24 PM 29.7°F-1.3°C 26.6°F-3.0°C 88% 3.1 mph SSE5.0 kmh SSE 5.1 mph8.2 kmh 30.07 in1018.3 mb 0.00 in0.0 mm 0.00 in0.0 mm 0.00 in0.0 mm
05:29 PM 29.5°F-1.4°C 26.6°F-3.0°C 89% 2.7 mph SE4.3 kmh SE 3.6 mph5.8 kmh 30.07 in1018.3 mb 0.00 in0.0 mm 0.00 in0.0 mm 0.00 in0.0 mm
05:34 PM 29.7°F-1.3°C 26.8°F-2.9°C 89% 2.7 mph SSE4.3 kmh SSE 3.8 mph6.1 kmh 30.07 in1018.3 mb 0.00 in0.0 mm 0.00 in0.0 mm 0.00 in0.0 mm
05:39 PM 29.5°F-1.4°C 26.6°F-3.0°C 89% 2.2 mph SSE3.5 kmh SSE 3.1 mph5.0 kmh 30.07 in1018.3 mb 0.00 in0.0 mm 0.00 in0.0 mm 0.00 in0.0 mm
05:44 PM 29.5°F-1.4°C 26.6°F-3.0°C 89% 2.9 mph SE4.7 kmh SE 4.0 mph6.4 kmh 30.07 in1018.3 mb 0.00 in0.0 mm 0.00 in0.0 mm 0.00 in0.0 mm
05:49 PM 29.5°F-1.4°C 26.6°F-3.0°C 89% 2.2 mph SSE3.5 kmh SSE 4.7 mph7.6 kmh 30.07 in1018.3 mb 0.00 in0.0 mm 0.00 in0.0 mm 0.00 in0.0 mm
05:54 PM 29.5°F-1.4°C 26.6°F-3.0°C 89% 2.2 mph SSE3.5 kmh SSE 3.6 mph5.8 kmh 30.07 in1018.3 mb 0.00 in0.0 mm 0.00 in0.0 mm 0.00 in0.0 mm
05:59 PM 29.5°F-1.4°C 26.6°F-3.0°C 89% 2.9 mph SE4.7 kmh SE 4.0 mph6.4 kmh 30.07 in1018.3 mb 0.00 in0.0 mm 0.00 in0.0 mm 0.00 in0.0 mm
06:04 PM 29.5°F-1.4°C 26.6°F-3.0°C 89% 3.4 mph SSE5.5 kmh SSE 4.5 mph7.2 kmh 30.07 in1018.3 mb 0.00 in0.0 mm 0.00 in0.0 mm 0.00 in0.0 mm
06:09 PM 29.3°F-1.5°C 26.4°F-3.1°C 89% 2.7 mph SE4.3 kmh SE 3.6 mph5.8 kmh 30.07 in1018.3 mb 0.00 in0.0 mm 0.00 in0.0 mm 0.00 in0.0 mm
06:14 PM 29.3°F-1.5°C 26.4°F-3.1°C 89% 4.0 mph SSE6.4 kmh SSE 4.7 mph7.6 kmh 30.06 in1017.9 mb 0.00 in0.0 mm 0.00 in0.0 mm 0.00 in0.0 mm
06:19 PM 29.3°F-1.5°C 26.4°F-3.1°C 89% 3.6 mph SSE5.8 kmh SSE 4.9 mph7.9 kmh 30.06 in1017.9 mb 0.00 in0.0 mm 0.00 in0.0 mm 0.00 in0.0 mm
06:24 PM 29.5°F-1.4°C 26.6°F-3.0°C 89% 1.8 mph SE2.9 kmh SE 3.1 mph5.0 kmh 30.06 in1017.9 mb 0.00 in0.0 mm 0.00 in0.0 mm 0.00 in0.0 mm
06:29 PM 29.5°F-1.4°C 26.6°F-3.0°C 89% 3.6 mph SSE5.8 kmh SSE 4.9 mph7.9 kmh 30.06 in1017.9 mb 0.00 in0.0 mm 0.00 in0.0 mm 0.00 in0.0 mm
06:34 PM 29.5°F-1.4°C 27.0°F-2.8°C 90% 3.4 mph SSE5.5 kmh SSE 5.4 mph8.7 kmh 30.06 in1017.9 mb 0.00 in0.0 mm 0.00 in0.0 mm 0.00 in0.0 mm
06:39 PM 29.5°F-1.4°C 27.0°F-2.8°C 90% 3.6 mph SSE5.8 kmh SSE 6.3 mph10.1 kmh 30.06 in1017.9 mb 0.00 in0.0 mm 0.00 in0.0 mm 0.00 in0.0 mm
06:44 PM 29.3°F-1.5°C 26.8°F-2.9°C 90% 3.6 mph SSE5.8 kmh SSE 4.9 mph7.9 kmh 30.06 in1017.9 mb 0.00 in0.0 mm 0.00 in0.0 mm 0.00 in0.0 mm
06:49 PM 29.3°F-1.5°C 26.8°F-2.9°C 90% 3.8 mph S6.1 kmh S 5.4 mph8.7 kmh 30.06 in1017.9 mb 0.00 in0.0 mm 0.00 in0.0 mm 0.00 in0.0 mm
06:54 PM 29.3°F-1.5°C 26.8°F-2.9°C 90% 4.3 mph SSE6.9 kmh SSE 6.5 mph10.5 kmh 30.06 in1017.9 mb 0.00 in0.0 mm 0.00 in0.0 mm 0.00 in0.0 mm
06:59 PM 29.3°F-1.5°C 26.8°F-2.9°C 90% 4.5 mph SSE7.2 kmh SSE 6.0 mph9.7 kmh 30.06 in1017.9 mb 0.00 in0.0 mm 0.00 in0.0 mm 0.00 in0.0 mm
07:04 PM 29.5°F-1.4°C 27.0°F-2.8°C 90% 4.0 mph SSE6.4 kmh SSE 5.6 mph9.0 kmh 30.06 in1017.9 mb 0.00 in0.0 mm 0.00 in0.0 mm 0.00 in0.0 mm
07:09 PM 29.5°F-1.4°C 27.0°F-2.8°C 90% 3.8 mph SSE6.1 kmh SSE 5.4 mph8.7 kmh 30.05 in1017.6 mb 0.00 in0.0 mm 0.00 in0.0 mm 0.00 in0.0 mm
07:14 PM 29.5°F-1.4°C 27.0°F-2.8°C 90% 3.1 mph S5.0 kmh S 5.4 mph8.7 kmh 30.05 in1017.6 mb 0.00 in0.0 mm 0.00 in0.0 mm 0.00 in0.0 mm
07:19 PM 29.5°F-1.4°C 27.0°F-2.8°C 90% 4.0 mph SSE6.4 kmh SSE 5.6 mph9.0 kmh 30.05 in1017.6 mb 0.00 in0.0 mm 0.00 in0.0 mm 0.00 in0.0 mm
07:24 PM 29.5°F-1.4°C 27.1°F-2.7°C 91% 2.7 mph SSE4.3 kmh SSE 3.1 mph5.0 kmh 30.05 in1017.6 mb 0.00 in0.0 mm 0.00 in0.0 mm 0.00 in0.0 mm
07:29 PM 29.3°F-1.5°C 27.0°F-2.8°C 91% 4.0 mph SSE6.4 kmh SSE 4.7 mph7.6 kmh 30.05 in1017.6 mb 0.00 in0.0 mm 0.00 in0.0 mm 0.00 in0.0 mm
07:34 PM 29.5°F-1.4°C 27.1°F-2.7°C 91% 2.5 mph SSE4.0 kmh SSE 4.7 mph7.6 kmh 30.05 in1017.6 mb 0.00 in0.0 mm 0.00 in0.0 mm 0.00 in0.0 mm
07:39 PM 29.5°F-1.4°C 27.1°F-2.7°C 91% 3.6 mph SE5.8 kmh SE 4.7 mph7.6 kmh 30.05 in1017.6 mb 0.00 in0.0 mm 0.00 in0.0 mm 0.00 in0.0 mm
07:44 PM 29.5°F-1.4°C 27.1°F-2.7°C 91% 3.8 mph SE6.1 kmh SE 6.3 mph10.1 kmh 30.05 in1017.6 mb 0.00 in0.0 mm 0.00 in0.0 mm 0.00 in0.0 mm
07:49 PM 29.5°F-1.4°C 27.1°F-2.7°C 91% 3.1 mph SSE5.0 kmh SSE 4.9 mph7.9 kmh 30.05 in1017.6 mb 0.00 in0.0 mm 0.00 in0.0 mm 0.00 in0.0 mm
07:54 PM 29.5°F-1.4°C 27.1°F-2.7°C 91% 3.8 mph SSE6.1 kmh SSE 4.7 mph7.6 kmh 30.04 in1017.3 mb 0.00 in0.0 mm 0.00 in0.0 mm 0.00 in0.0 mm
07:59 PM 29.5°F-1.4°C 27.1°F-2.7°C 91% 2.9 mph SSE4.7 kmh SSE 4.3 mph6.9 kmh 30.04 in1017.3 mb 0.00 in0.0 mm 0.00 in0.0 mm 0.00 in0.0 mm
08:04 PM 29.7°F-1.3°C 27.3°F-2.6°C 91% 4.3 mph SSE6.9 kmh SSE 5.4 mph8.7 kmh 30.04 in1017.3 mb 0.00 in0.0 mm 0.00 in0.0 mm 0.00 in0.0 mm
08:09 PM 29.8°F-1.2°C 27.5°F-2.5°C 91% 4.9 mph SE7.9 kmh SE 6.7 mph10.8 kmh 30.04 in1017.3 mb 0.00 in0.0 mm 0.00 in0.0 mm 0.00 in0.0 mm
08:14 PM 29.8°F-1.2°C 28.0°F-2.2°C 93% 4.9 mph SSE7.9 kmh SSE 9.6 mph15.4 kmh 30.04 in1017.3 mb 0.00 in0.0 mm 0.00 in0.0 mm 0.00 in0.0 mm
08:19 PM 29.8°F-1.2°C 27.5°F-2.5°C 91% 3.8 mph SSE6.1 kmh SSE 4.7 mph7.6 kmh 30.04 in1017.3 mb 0.00 in0.0 mm 0.00 in0.0 mm 0.00 in0.0 mm
08:24 PM 29.8°F-1.2°C 28.0°F-2.2°C 93% 2.5 mph SE4.0 kmh SE 3.6 mph5.8 kmh 30.04 in1017.3 mb 0.00 in0.0 mm 0.00 in0.0 mm 0.00 in0.0 mm
08:29 PM 30.0°F-1.1°C 28.2°F-2.1°C 93% 2.9 mph SE4.7 kmh SE 4.7 mph7.6 kmh 30.04 in1017.3 mb 0.00 in0.0 mm 0.00 in0.0 mm 0.00 in0.0 mm
08:34 PM 30.0°F-1.1°C 28.2°F-2.1°C 93% 3.1 mph S5.0 kmh S 4.3 mph6.9 kmh 30.04 in1017.3 mb 0.00 in0.0 mm 0.00 in0.0 mm 0.00 in0.0 mm
08:39 PM 30.0°F-1.1°C 28.2°F-2.1°C 93% 3.1 mph SSE5.0 kmh SSE 4.7 mph7.6 kmh 30.03 in1016.9 mb 0.00 in0.0 mm 0.00 in0.0 mm 0.00 in0.0 mm
08:44 PM 30.2°F-1.0°C 28.4°F-2.0°C 93% 2.7 mph SSE4.3 kmh SSE 3.6 mph5.8 kmh 30.03 in1016.9 mb 0.00 in0.0 mm 0.00 in0.0 mm 0.00 in0.0 mm
08:49 PM 30.2°F-1.0°C 28.4°F-2.0°C 93% 4.0 mph SE6.4 kmh SE 6.0 mph9.7 kmh 30.03 in1016.9 mb 0.00 in0.0 mm 0.00 in0.0 mm 0.00 in0.0 mm
08:54 PM 30.2°F-1.0°C 28.4°F-2.0°C 93% 2.5 mph S4.0 kmh S 3.8 mph6.1 kmh 30.03 in1016.9 mb 0.00 in0.0 mm 0.00 in0.0 mm 0.00 in0.0 mm
08:59 PM 30.4°F-0.9°C 28.6°F-1.9°C 93% 3.8 mph SE6.1 kmh SE 5.6 mph9.0 kmh 30.03 in1016.9 mb 0.00 in0.0 mm 0.00 in0.0 mm 0.00 in0.0 mm
09:04 PM 30.2°F-1.0°C 28.4°F-2.0°C 93% 3.4 mph SSE5.5 kmh SSE 4.7 mph7.6 kmh 30.03 in1016.9 mb 0.00 in0.0 mm 0.00 in0.0 mm 0.00 in0.0 mm
09:09 PM 30.4°F-0.9°C 28.6°F-1.9°C 93% 3.6 mph SE5.8 kmh SE 4.9 mph7.9 kmh 30.03 in1016.9 mb 0.00 in0.0 mm 0.00 in0.0 mm 0.00 in0.0 mm
09:14 PM 30.4°F-0.9°C 28.6°F-1.9°C 93% 2.7 mph SSE4.3 kmh SSE 3.8 mph6.1 kmh 30.02 in1016.6 mb 0.00 in0.0 mm 0.00 in0.0 mm 0.00 in0.0 mm
09:19 PM 30.6°F-0.8°C 28.8°F-1.8°C 93% 2.2 mph SE3.5 kmh SE 3.1 mph5.0 kmh 30.02 in1016.6 mb 0.00 in0.0 mm 0.00 in0.0 mm 0.00 in0.0 mm
09:24 PM 30.6°F-0.8°C 28.8°F-1.8°C 93% 2.9 mph SE4.7 kmh SE 4.3 mph6.9 kmh 30.02 in1016.6 mb 0.00 in0.0 mm 0.00 in0.0 mm 0.00 in0.0 mm
09:29 PM 30.6°F-0.8°C 28.8°F-1.8°C 93% 1.3 mph SE2.1 kmh SE 2.5 mph4.0 kmh 30.02 in1016.6 mb 0.00 in0.0 mm 0.00 in0.0 mm 0.00 in0.0 mm
09:34 PM 30.6°F-0.8°C 28.8°F-1.8°C 93% 2.9 mph SSE4.7 kmh SSE 3.6 mph5.8 kmh 30.02 in1016.6 mb 0.00 in0.0 mm 0.00 in0.0 mm 0.00 in0.0 mm
09:39 PM 30.7°F-0.7°C 28.9°F-1.7°C 93% 2.5 mph SE4.0 kmh SE 3.6 mph5.8 kmh 30.02 in1016.6 mb 0.00 in0.0 mm 0.00 in0.0 mm 0.00 in0.0 mm
09:44 PM 30.7°F-0.7°C 28.9°F-1.7°C 93% 2.0 mph SSE3.2 kmh SSE 3.4 mph5.5 kmh 30.02 in1016.6 mb 0.00 in0.0 mm 0.00 in0.0 mm 0.00 in0.0 mm
09:49 PM 30.7°F-0.7°C 28.9°F-1.7°C 93% 1.3 mph SSE2.1 kmh SSE 2.9 mph4.7 kmh 30.02 in1016.6 mb 0.00 in0.0 mm 0.00 in0.0 mm 0.00 in0.0 mm
09:54 PM 30.9°F-0.6°C 29.1°F-1.6°C 93% 2.5 mph SE4.0 kmh SE 3.4 mph5.5 kmh 30.02 in1016.6 mb 0.00 in0.0 mm 0.00 in0.0 mm 0.00 in0.0 mm
09:59 PM 30.9°F-0.6°C 29.1°F-1.6°C 93% 2.0 mph SE3.2 kmh SE 3.1 mph5.0 kmh 30.02 in1016.6 mb 0.00 in0.0 mm 0.00 in0.0 mm 0.00 in0.0 mm
10:04 PM 30.9°F-0.6°C 29.1°F-1.6°C 93% 2.5 mph SE4.0 kmh SE 3.1 mph5.0 kmh 30.02 in1016.6 mb 0.00 in0.0 mm 0.00 in0.0 mm 0.00 in0.0 mm
10:09 PM 30.9°F-0.6°C 29.1°F-1.6°C 93% 1.8 mph SE2.9 kmh SE 3.1 mph5.0 kmh 30.02 in1016.6 mb 0.00 in0.0 mm 0.00 in0.0 mm 0.00 in0.0 mm
10:14 PM 31.1°F-0.5°C 29.3°F-1.5°C 93% 2.2 mph SE3.5 kmh SE 2.9 mph4.7 kmh 30.02 in1016.6 mb 0.00 in0.0 mm 0.00 in0.0 mm 0.00 in0.0 mm
10:19 PM 31.1°F-0.5°C 29.3°F-1.5°C 93% 2.2 mph SE3.5 kmh SE 2.7 mph4.3 kmh 30.02 in1016.6 mb 0.00 in0.0 mm 0.00 in0.0 mm 0.00 in0.0 mm
10:24 PM 31.3°F-0.4°C 29.5°F-1.4°C 93% 1.8 mph SE2.9 kmh SE 2.7 mph4.3 kmh 30.02 in1016.6 mb 0.00 in0.0 mm 0.00 in0.0 mm 0.00 in0.0 mm
10:29 PM 31.3°F-0.4°C 29.5°F-1.4°C 93% 1.6 mph SE2.6 kmh SE 2.0 mph3.2 kmh 30.02 in1016.6 mb 0.00 in0.0 mm 0.00 in0.0 mm 0.00 in0.0 mm
10:34 PM 31.5°F-0.3°C 29.7°F-1.3°C 93% 1.8 mph SE2.9 kmh SE 2.5 mph4.0 kmh 30.02 in1016.6 mb 0.00 in0.0 mm 0.00 in0.0 mm 0.00 in0.0 mm
10:39 PM 31.5°F-0.3°C 29.7°F-1.3°C 93% 2.7 mph SE4.3 kmh SE 3.6 mph5.8 kmh 30.02 in1016.6 mb 0.00 in0.0 mm 0.00 in0.0 mm 0.00 in0.0 mm
10:44 PM 31.6°F-0.2°C 29.8°F-1.2°C 93% 2.5 mph SE4.0 kmh SE 3.4 mph5.5 kmh 30.02 in1016.6 mb 0.00 in0.0 mm 0.00 in0.0 mm 0.00 in0.0 mm
10:49 PM 31.6°F-0.2°C 29.8°F-1.2°C 93% 1.6 mph SE2.6 kmh SE 2.0 mph3.2 kmh 30.02 in1016.6 mb 0.00 in0.0 mm 0.00 in0.0 mm 0.00 in0.0 mm
10:54 PM 31.6°F-0.2°C 29.8°F-1.2°C 93% 2.0 mph SE3.2 kmh SE 2.7 mph4.3 kmh 30.02 in1016.6 mb 0.00 in0.0 mm 0.00 in0.0 mm 0.00 in0.0 mm
10:59 PM 31.6°F-0.2°C 29.8°F-1.2°C 93% 1.8 mph SE2.9 kmh SE 2.0 mph3.2 kmh 30.02 in1016.6 mb 0.00 in0.0 mm 0.00 in0.0 mm 0.00 in0.0 mm
11:04 PM 31.6°F-0.2°C 29.8°F-1.2°C 93% 1.6 mph SE2.6 kmh SE 2.0 mph3.2 kmh 30.02 in1016.6 mb 0.00 in0.0 mm 0.00 in0.0 mm 0.00 in0.0 mm
11:09 PM 31.6°F-0.2°C 30.2°F-1.0°C 94% 1.8 mph ESE2.9 kmh ESE 2.2 mph3.5 kmh 30.02 in1016.6 mb 0.00 in0.0 mm 0.00 in0.0 mm 0.00 in0.0 mm
11:14 PM 31.6°F-0.2°C 29.8°F-1.2°C 93% 1.8 mph SE2.9 kmh SE 2.0 mph3.2 kmh 30.02 in1016.6 mb 0.00 in0.0 mm 0.00 in0.0 mm 0.00 in0.0 mm
11:19 PM 31.8°F-0.1°C 30.0°F-1.1°C 93% 1.3 mph SE2.1 kmh SE 1.8 mph2.9 kmh 30.03 in1016.9 mb 0.00 in0.0 mm 0.00 in0.0 mm 0.00 in0.0 mm
11:24 PM 31.8°F-0.1°C 30.0°F-1.1°C 93% 1.1 mph SE1.8 kmh SE 1.8 mph2.9 kmh 30.03 in1016.9 mb 0.00 in0.0 mm 0.00 in0.0 mm 0.00 in0.0 mm
11:29 PM 31.8°F-0.1°C 30.0°F-1.1°C 93% 1.6 mph SE2.6 kmh SE 1.8 mph2.9 kmh 30.03 in1016.9 mb 0.00 in0.0 mm 0.00 in0.0 mm 0.00 in0.0 mm
11:34 PM 31.8°F-0.1°C 30.4°F-0.9°C 94% 1.1 mph ESE1.8 kmh ESE 1.3 mph2.1 kmh 30.03 in1016.9 mb 0.00 in0.0 mm 0.00 in0.0 mm 0.00 in0.0 mm
11:39 PM 31.8°F-0.1°C 30.0°F-1.1°C 93% 1.1 mph SE1.8 kmh SE 1.6 mph2.6 kmh 30.02 in1016.6 mb 0.00 in0.0 mm 0.00 in0.0 mm 0.00 in0.0 mm
11:44 PM 31.8°F-0.1°C 30.0°F-1.1°C 93% 1.6 mph SE2.6 kmh SE 1.8 mph2.9 kmh 30.02 in1016.6 mb 0.00 in0.0 mm 0.00 in0.0 mm 0.00 in0.0 mm
11:49 PM 31.8°F-0.1°C 30.4°F-0.9°C 94% 1.8 mph SE2.9 kmh SE 2.2 mph3.5 kmh 30.02 in1016.6 mb 0.00 in0.0 mm 0.00 in0.0 mm 0.00 in0.0 mm
11:54 PM 32.0°F0.0°C 30.4°F-0.9°C 94% 1.8 mph SSW2.9 kmh SSW 4.3 mph6.9 kmh 30.01 in1016.3 mb 0.00 in0.0 mm 0.00 in0.0 mm 0.00 in0.0 mm